Time;durP1;ratioP1;P1;durP2;ratioP2;P2;SDS_P1;SDS_P2;PMS_P1;PMS_P2;Temp;Humidity;BMP_temperature;BMP_pressure;BME280_temperature;BME280_humidity;BME280_pressure;Samples;Min_cycle;Max_cycle;Signal;HPM_P1;HPM_P2
2024/02/25 00:01:11;;;;;;;0.88;0.82;;;6.40;99.90;;;;;;5034500;28;20021;-41
2024/02/25 00:03:37;;;;;;;1.27;1.02;;;6.40;99.90;;;;;;5033373;28;20037;-41
2024/02/25 00:06:03;;;;;;;3.75;0.77;;;6.50;99.90;;;;;;5041553;28;20029;-40
2024/02/25 00:08:28;;;;;;;2.80;1.25;;;6.40;99.90;;;;;;5047010;28;20439;-39
2024/02/25 00:10:54;;;;;;;1.52;0.73;;;6.40;99.90;;;;;;5052143;28;20532;-41
2024/02/25 00:13:19;;;;;;;1.52;0.60;;;6.50;99.90;;;;;;5041091;28;20033;-54
2024/02/25 00:15:45;;;;;;;1.73;1.00;;;6.50;99.90;;;;;;5038024;28;20032;-54
2024/02/25 00:18:11;;;;;;;4.68;0.70;;;6.60;99.90;;;;;;5043144;28;20033;-55
2024/02/25 00:20:36;;;;;;;1.05;0.70;;;6.50;99.90;;;;;;5031770;28;20033;-54
2024/02/25 00:23:02;;;;;;;1.48;1.00;;;6.50;99.90;;;;;;5038438;28;20068;-53
2024/02/25 00:25:28;;;;;;;5.15;0.70;;;6.50;99.90;;;;;;5044455;28;20175;-53
2024/02/25 00:27:53;;;;;;;4.57;0.57;;;6.50;99.90;;;;;;5052206;28;20021;-50
2024/02/25 00:30:19;;;;;;;5.07;0.77;;;6.50;99.90;;;;;;5035820;28;20040;-53
2024/02/25 00:32:45;;;;;;;4.20;0.63;;;6.50;99.90;;;;;;5036658;28;20108;-53
2024/02/25 00:35:10;;;;;;;1.88;0.80;;;6.60;99.90;;;;;;5043292;28;20492;-53
2024/02/25 00:37:36;;;;;;;2.35;0.73;;;6.50;99.90;;;;;;5036910;28;20029;-53
2024/02/25 00:40:02;;;;;;;3.88;0.60;;;6.60;99.90;;;;;;5036940;28;20159;-54
2024/02/25 00:42:27;;;;;;;2.45;1.00;;;6.60;99.90;;;;;;5055478;28;20039;-53
2024/02/25 00:44:53;;;;;;;6.93;0.75;;;6.60;99.90;;;;;;5054688;28;20075;-53
2024/02/25 00:47:18;;;;;;;7.38;1.17;;;6.60;99.90;;;;;;5051577;28;20501;-51
2024/02/25 00:49:44;;;;;;;3.38;1.27;;;6.60;99.90;;;;;;5036866;28;20068;-51
2024/02/25 00:52:10;;;;;;;5.50;1.10;;;6.60;99.90;;;;;;5035401;28;20038;-54
2024/02/25 00:54:37;;;;;;;2.45;0.90;;;6.60;99.90;;;;;;5048591;28;20035;-54
2024/02/25 00:57:03;;;;;;;0.80;0.77;;;6.60;99.90;;;;;;5035441;28;20481;-50
2024/02/25 00:59:29;;;;;;;1.50;1.20;;;6.60;99.90;;;;;;5035572;28;20497;-54
2024/02/25 01:01:54;;;;;;;6.10;1.38;;;6.70;99.90;;;;;;5033942;28;20032;-49
2024/02/25 01:04:21;;;;;;;1.23;0.80;;;6.70;99.90;;;;;;5033856;28;20018;-40
2024/02/25 01:06:48;;;;;;;1.33;1.05;;;6.70;99.90;;;;;;5047483;28;20068;-41
2024/02/25 01:09:14;;;;;;;1.83;0.73;;;6.70;99.90;;;;;;5034915;28;20135;-42
2024/02/25 01:11:40;;;;;;;3.13;0.95;;;6.60;99.90;;;;;;5034844;28;20041;-41
2024/02/25 01:14:05;;;;;;;1.70;1.30;;;6.70;99.90;;;;;;5035832;28;20035;-39
2024/02/25 01:16:31;;;;;;;1.10;0.93;;;6.70;99.90;;;;;;5050408;28;20020;-37
2024/02/25 01:18:57;;;;;;;2.38;0.98;;;6.60;99.90;;;;;;5052934;28;20374;-54
2024/02/25 01:21:23;;;;;;;2.15;1.02;;;6.60;99.90;;;;;;5055005;28;20033;-51
2024/02/25 01:23:49;;;;;;;2.90;0.80;;;6.60;99.90;;;;;;5045886;28;20040;-38
2024/02/25 01:26:15;;;;;;;4.13;1.10;;;6.60;99.90;;;;;;5039493;28;20502;-38
2024/02/25 01:28:40;;;;;;;2.40;1.00;;;6.50;99.90;;;;;;5048170;28;20017;-39
2024/02/25 01:31:06;;;;;;;2.60;1.08;;;6.50;99.90;;;;;;5041456;28;20064;-37
2024/02/25 01:33:32;;;;;;;1.27;0.68;;;6.50;99.90;;;;;;5042687;28;20041;-39
2024/02/25 01:35:57;;;;;;;10.02;1.00;;;6.50;99.90;;;;;;5034387;28;20045;-42
2024/02/25 01:38:23;;;;;;;0.70;0.70;;;6.40;99.90;;;;;;5034538;28;20083;-39
2024/02/25 01:40:49;;;;;;;3.88;1.33;;;6.40;99.90;;;;;;5034499;28;20437;-40
2024/02/25 01:43:16;;;;;;;3.50;0.70;;;6.40;99.90;;;;;;5038490;28;20029;-40
2024/02/25 01:45:42;;;;;;;2.28;0.98;;;6.40;99.90;;;;;;5033136;28;20071;-41
2024/02/25 01:48:08;;;;;;;1.15;0.77;;;6.40;99.90;;;;;;5040835;28;20112;-40
2024/02/25 01:50:38;;;;;;;4.28;1.35;;;6.40;99.90;;;;;;5034340;28;20119;-38
2024/02/25 01:53:04;;;;;;;1.00;0.65;;;6.40;99.90;;;;;;5042337;28;20074;-41
2024/02/25 01:55:31;;;;;;;3.58;0.93;;;6.40;99.90;;;;;;5040491;28;20448;-39
2024/02/25 01:58:02;;;;;;;2.33;1.00;;;6.40;99.90;;;;;;5046608;28;20482;-39
2024/02/25 02:00:29;;;;;;;1.65;0.90;;;6.40;99.90;;;;;;5040465;28;20021;-39
2024/02/25 02:02:55;;;;;;;3.13;0.88;;;6.30;99.90;;;;;;5051466;28;20449;-42
2024/02/25 02:05:21;;;;;;;0.80;0.80;;;6.30;99.90;;;;;;5048195;28;20547;-40
2024/02/25 02:07:48;;;;;;;4.45;0.85;;;6.30;99.90;;;;;;5032807;28;20052;-41
2024/02/25 02:10:17;;;;;;;1.83;1.20;;;6.30;99.90;;;;;;5040593;28;20462;-38
2024/02/25 02:12:44;;;;;;;3.45;0.73;;;6.40;99.90;;;;;;5041773;28;20033;-40
2024/02/25 02:15:11;;;;;;;2.35;1.10;;;6.30;99.90;;;;;;5042553;28;20033;-40
2024/02/25 02:17:41;;;;;;;3.83;0.93;;;6.30;99.90;;;;;;5053723;28;20056;-40
2024/02/25 02:20:18;;;;;;;2.15;1.70;;;6.20;99.90;;;;;;5047643;28;20028;-44
2024/02/25 02:22:44;;;;;;;1.50;1.20;;;6.20;99.90;;;;;;5034192;28;20030;-39
2024/02/25 02:25:11;;;;;;;1.48;1.35;;;6.20;99.90;;;;;;5033708;28;20521;-40
2024/02/25 02:27:38;;;;;;;3.40;1.70;;;6.20;99.90;;;;;;5033718;28;20025;-39
2024/02/25 02:30:05;;;;;;;2.40;1.50;;;6.20;99.90;;;;;;5053095;28;20021;-42
2024/02/25 02:32:31;;;;;;;1.60;1.50;;;6.20;99.90;;;;;;5049401;28;20456;-54
2024/02/25 02:34:57;;;;;;;1.50;1.40;;;6.20;99.90;;;;;;5033555;28;20076;-54
2024/02/25 02:37:23;;;;;;;5.35;1.80;;;6.10;99.90;;;;;;5033481;28;20474;-50
2024/02/25 02:39:48;;;;;;;3.65;1.65;;;6.20;99.90;;;;;;5035920;28;20613;-55
2024/02/25 02:42:14;;;;;;;2.13;1.92;;;6.20;99.90;;;;;;5043663;28;20055;-54
2024/02/25 02:44:40;;;;;;;4.15;1.88;;;6.10;99.90;;;;;;5033960;28;20074;-52
2024/02/25 02:47:06;;;;;;;3.28;1.98;;;6.10;99.90;;;;;;5033325;28;20033;-51
2024/02/25 02:49:32;;;;;;;2.55;1.73;;;6.10;99.90;;;;;;5050861;28;20487;-54
2024/02/25 02:52:02;;;;;;;4.90;2.03;;;6.10;99.90;;;;;;5032278;28;20032;-50
2024/02/25 02:54:27;;;;;;;2.55;2.35;;;6.10;99.90;;;;;;5056991;28;20480;-53
2024/02/25 02:56:53;;;;;;;4.60;2.40;;;6.10;99.90;;;;;;5049096;28;20029;-54
2024/02/25 02:59:20;;;;;;;4.65;2.50;;;6.20;99.90;;;;;;5052183;28;20405;-53
2024/02/25 03:01:55;;;;;;;2.47;2.28;;;6.20;99.90;;;;;;5033268;28;20033;-55
2024/02/25 03:04:22;;;;;;;2.85;2.28;;;6.10;99.90;;;;;;5033427;28;20026;-39
2024/02/25 03:06:48;;;;;;;4.60;3.03;;;6.20;99.90;;;;;;5036802;28;20014;-40
2024/02/25 03:09:14;;;;;;;5.28;2.45;;;6.20;99.90;;;;;;5032597;28;20053;-40
2024/02/25 03:11:40;;;;;;;2.83;2.53;;;6.20;99.90;;;;;;5032722;28;20033;-44
2024/02/25 03:14:06;;;;;;;5.72;2.72;;;6.20;99.90;;;;;;5049958;28;20037;-40
2024/02/25 03:16:32;;;;;;;3.33;2.70;;;6.20;99.90;;;;;;5045394;28;20025;-40
2024/02/25 03:18:58;;;;;;;2.53;2.33;;;6.20;99.90;;;;;;5040741;28;20113;-41
2024/02/25 03:21:24;;;;;;;6.47;3.10;;;6.20;99.90;;;;;;5037459;28;20143;-40
2024/02/25 03:23:50;;;;;;;2.80;2.47;;;6.20;99.90;;;;;;5038020;28;20084;-44
2024/02/25 03:26:17;;;;;;;6.85;3.08;;;6.20;99.90;;;;;;5033585;28;20098;-40
2024/02/25 03:28:43;;;;;;;2.92;2.67;;;6.20;99.90;;;;;;5043422;28;20029;-41
2024/02/25 03:31:09;;;;;;;6.97;2.67;;;6.20;99.90;;;;;;5044094;28;20041;-45
2024/02/25 03:33:35;;;;;;;3.42;2.97;;;6.20;99.90;;;;;;5043254;28;20139;-44
2024/02/25 03:36:01;;;;;;;4.50;3.08;;;6.20;99.90;;;;;;5032663;28;20030;-42
2024/02/25 03:38:27;;;;;;;3.35;2.60;;;6.20;99.90;;;;;;5032588;28;20402;-42
2024/02/25 03:40:53;;;;;;;5.07;2.33;;;6.10;99.90;;;;;;5033037;28;20498;-40
2024/02/25 03:43:20;;;;;;;4.80;2.97;;;6.20;99.90;;;;;;5047364;28;20053;-55
2024/02/25 03:45:45;;;;;;;4.57;3.42;;;6.10;99.90;;;;;;5052738;28;20521;-52
2024/02/25 03:48:12;;;;;;;2.88;2.58;;;6.10;99.90;;;;;;5042090;28;20104;-55
2024/02/25 03:50:38;;;;;;;2.95;2.65;;;6.20;99.90;;;;;;5032810;28;20060;-53
2024/02/25 03:53:04;;;;;;;4.03;2.78;;;6.10;99.90;;;;;;5047645;28;20055;-53
2024/02/25 03:55:30;;;;;;;4.05;2.78;;;6.10;99.90;;;;;;5032232;28;20037;-55
2024/02/25 03:57:56;;;;;;;7.63;2.72;;;6.10;99.90;;;;;;5044744;28;20142;-52
2024/02/25 04:00:22;;;;;;;2.80;2.50;;;6.20;99.90;;;;;;5052648;28;20386;-52
2024/02/25 04:02:48;;;;;;;3.92;3.05;;;6.10;99.90;;;;;;5038211;28;20060;-53
2024/02/25 04:05:14;;;;;;;3.08;2.58;;;6.10;99.90;;;;;;5036937;28;20506;-53
2024/02/25 04:07:44;;;;;;;4.32;2.90;;;6.10;99.90;;;;;;5036318;28;20025;-54
2024/02/25 04:10:10;;;;;;;5.05;3.05;;;6.10;99.90;;;;;;5042449;28;20108;-53
2024/02/25 04:12:39;;;;;;;3.40;2.40;;;6.20;99.90;;;;;;5055380;28;20508;-42
2024/02/25 04:15:06;;;;;;;4.40;2.85;;;6.20;99.90;;;;;;5039950;28;20045;-40
2024/02/25 04:17:33;;;;;;;4.95;2.92;;;6.20;99.90;;;;;;5054557;28;20439;-40
2024/02/25 04:20:00;;;;;;;3.92;3.00;;;6.20;99.90;;;;;;5040785;28;20032;-39
2024/02/25 04:22:25;;;;;;;4.57;3.10;;;6.20;99.90;;;;;;5035231;28;20029;-45
2024/02/25 04:24:51;;;;;;;3.15;2.70;;;6.20;99.90;;;;;;5035908;28;20433;-42
2024/02/25 04:27:18;;;;;;;5.35;3.63;;;6.20;99.90;;;;;;5035700;28;20379;-41
2024/02/25 04:29:44;;;;;;;6.28;3.22;;;6.20;99.90;;;;;;5042244;28;20354;-44
2024/02/25 04:32:10;;;;;;;3.63;2.88;;;6.20;99.90;;;;;;5038178;28;20449;-40
2024/02/25 04:34:36;;;;;;;6.07;3.63;;;6.20;99.90;;;;;;5050641;28;20025;-40
2024/02/25 04:37:03;;;;;;;4.93;3.42;;;6.20;99.90;;;;;;5053517;28;20032;-40
2024/02/25 04:39:29;;;;;;;3.03;2.63;;;6.20;99.90;;;;;;5036398;28;20033;-40
2024/02/25 04:41:55;;;;;;;4.90;3.60;;;6.20;99.90;;;;;;5050283;28;20290;-42
2024/02/25 04:44:20;;;;;;;7.78;4.05;;;6.20;99.90;;;;;;5074407;28;20028;-39
2024/02/25 04:46:46;;;;;;;8.05;4.68;;;6.20;99.90;;;;;;5041476;28;20017;-43
2024/02/25 04:49:13;;;;;;;6.50;4.28;;;6.20;99.90;;;;;;5036301;28;20100;-45
2024/02/25 04:51:38;;;;;;;8.55;4.25;;;6.20;99.90;;;;;;5041167;28;20029;-40
2024/02/25 04:54:04;;;;;;;7.38;4.55;;;6.30;99.90;;;;;;5055628;28;20025;-54
2024/02/25 04:56:30;;;;;;;6.35;4.03;;;6.30;99.90;;;;;;5053748;28;20037;-52
2024/02/25 04:58:56;;;;;;;6.47;4.05;;;6.30;99.90;;;;;;5055364;28;20033;-52
2024/02/25 05:01:21;;;;;;;5.22;3.90;;;6.20;99.90;;;;;;5044030;28;20029;-52
2024/02/25 05:03:47;;;;;;;9.13;5.00;;;6.20;99.90;;;;;;5035191;28;20057;-52
2024/02/25 05:06:13;;;;;;;5.45;4.03;;;6.20;99.90;;;;;;5048513;28;20107;-53
2024/02/25 05:08:38;;;;;;;6.93;4.13;;;6.20;99.90;;;;;;5045068;28;20029;-53
2024/02/25 05:11:04;;;;;;;5.90;4.20;;;6.30;99.90;;;;;;5054304;28;20503;-52
2024/02/25 05:13:30;;;;;;;7.10;4.35;;;6.20;99.90;;;;;;5053849;28;20488;-54
2024/02/25 05:15:56;;;;;;;6.03;4.30;;;6.20;99.90;;;;;;5039659;28;20032;-52
2024/02/25 05:18:22;;;;;;;6.38;4.18;;;6.20;99.90;;;;;;5035342;28;20058;-53
2024/02/25 05:20:47;;;;;;;6.07;4.25;;;6.30;99.90;;;;;;5035098;28;20496;-55
2024/02/25 05:23:13;;;;;;;6.38;4.30;;;6.30;99.90;;;;;;5034920;28;20017;-54
2024/02/25 05:25:39;;;;;;;6.13;3.83;;;6.30;99.90;;;;;;5035847;28;20072;-54
2024/02/25 05:28:06;;;;;;;15.80;4.45;;;6.30;99.90;;;;;;5034786;28;20034;-55
2024/02/25 05:30:33;;;;;;;6.38;3.97;;;6.30;99.90;;;;;;5041847;28;20045;-53
2024/02/25 05:32:59;;;;;;;7.28;4.85;;;6.30;99.90;;;;;;5053458;28;20079;-50
2024/02/25 05:35:25;;;;;;;8.88;4.60;;;6.30;99.90;;;;;;5052944;28;20425;-53
2024/02/25 05:37:50;;;;;;;8.50;4.97;;;6.20;99.90;;;;;;5054492;28;20040;-54
2024/02/25 05:40:16;;;;;;;11.18;6.25;;;6.30;99.90;;;;;;5047238;28;20030;-53
2024/02/25 05:42:42;;;;;;;7.90;4.68;;;6.20;99.90;;;;;;5034258;28;20048;-53
2024/02/25 05:45:08;;;;;;;7.75;4.90;;;6.30;99.90;;;;;;5036649;28;20047;-54
2024/02/25 05:47:34;;;;;;;11.00;5.57;;;6.30;99.90;;;;;;5053766;28;20072;-53
2024/02/25 05:50:00;;;;;;;8.85;5.45;;;6.30;99.90;;;;;;5053420;28;20041;-54
2024/02/25 05:52:26;;;;;;;9.55;5.65;;;6.30;99.90;;;;;;5045029;28;20030;-52
2024/02/25 05:54:52;;;;;;;10.48;5.93;;;6.40;99.90;;;;;;5041583;28;20040;-49
2024/02/25 05:57:18;;;;;;;10.23;6.03;;;6.40;99.90;;;;;;5033278;28;20079;-53
2024/02/25 05:59:46;;;;;;;8.75;5.25;;;6.30;99.90;;;;;;5034025;28;20104;-52
2024/02/25 06:02:13;;;;;;;10.63;5.82;;;6.40;99.90;;;;;;5034307;28;20485;-51
2024/02/25 06:04:38;;;;;;;9.77;6.20;;;6.40;99.90;;;;;;5046788;28;20159;-54
2024/02/25 06:07:04;;;;;;;7.57;5.03;;;6.40;99.90;;;;;;5034726;28;20045;-53
2024/02/25 06:09:30;;;;;;;9.55;5.78;;;6.40;99.90;;;;;;5034058;28;20455;-54
2024/02/25 06:11:55;;;;;;;10.38;6.05;;;6.40;99.90;;;;;;5054196;28;20049;-53
2024/02/25 06:14:21;;;;;;;10.23;6.30;;;6.40;99.90;;;;;;5053366;28;20029;-53
2024/02/25 06:16:47;;;;;;;9.73;5.95;;;6.40;99.90;;;;;;5037525;28;20025;-52
2024/02/25 06:19:12;;;;;;;14.00;5.82;;;6.40;99.90;;;;;;5033758;28;20032;-54
2024/02/25 06:21:44;;;;;;;11.25;5.88;;;6.40;99.90;;;;;;5048503;28;20025;-53
2024/02/25 06:24:10;;;;;;;15.98;6.05;;;6.30;99.90;;;;;;5051949;28;20025;-52
2024/02/25 06:26:36;;;;;;;12.07;6.70;;;6.30;99.90;;;;;;5045559;28;20464;-54
2024/02/25 06:29:02;;;;;;;12.50;6.38;;;6.30;99.90;;;;;;5044677;28;20462;-52
2024/02/25 06:31:31;;;;;;;13.45;6.78;;;6.30;99.90;;;;;;5043721;28;20120;-51
2024/02/25 06:33:57;;;;;;;10.45;6.10;;;6.30;99.90;;;;;;5053492;28;20068;-54
2024/02/25 06:36:23;;;;;;;13.02;7.03;;;6.30;99.90;;;;;;5052693;28;20025;-54
2024/02/25 06:38:49;;;;;;;12.43;7.35;;;6.30;99.90;;;;;;5052578;28;20083;-52
2024/02/25 06:41:23;;;;;;;11.05;6.85;;;6.30;99.90;;;;;;5034560;28;20029;-52
2024/02/25 06:43:52;;;;;;;11.23;6.57;;;6.30;99.90;;;;;;5051858;28;20393;-51
2024/02/25 06:46:18;;;;;;;11.48;6.50;;;6.30;99.90;;;;;;5034078;28;20032;-56
2024/02/25 06:48:44;;;;;;;12.52;7.22;;;6.30;99.90;;;;;;5035565;28;20026;-52
2024/02/25 06:51:21;;;;;;;17.55;6.78;;;6.30;99.90;;;;;;5049239;28;20048;-53
2024/02/25 06:53:47;;;;;;;12.27;6.53;;;6.20;99.90;;;;;;5033071;28;20025;-47
2024/02/25 06:56:13;;;;;;;9.68;6.43;;;6.30;99.90;;;;;;5033837;28;20125;-52
2024/02/25 06:58:38;;;;;;;14.13;7.05;;;6.30;99.90;;;;;;5032994;28;20656;-53
2024/02/25 07:01:04;;;;;;;11.07;6.97;;;6.30;99.90;;;;;;5034753;28;20057;-52
2024/02/25 07:03:29;;;;;;;12.43;6.95;;;6.40;99.90;;;;;;5033027;28;20021;-53
2024/02/25 07:05:55;;;;;;;13.65;6.22;;;6.40;99.90;;;;;;5033086;28;20025;-53
2024/02/25 07:08:21;;;;;;;12.50;6.75;;;6.40;99.90;;;;;;5032998;28;20478;-54
2024/02/25 07:10:46;;;;;;;10.57;6.55;;;6.50;99.90;;;;;;5032490;28;20056;-53
2024/02/25 07:13:12;;;;;;;12.68;7.03;;;6.40;99.90;;;;;;5033538;28;20029;-38
2024/02/25 07:15:38;;;;;;;14.15;6.93;;;6.40;99.90;;;;;;5039483;28;20402;-44
2024/02/25 07:18:03;;;;;;;14.30;6.70;;;6.40;99.90;;;;;;5052762;28;20115;-39
2024/02/25 07:20:29;;;;;;;15.70;6.65;;;6.30;99.90;;;;;;5051129;28;20079;-40
2024/02/25 07:22:55;;;;;;;12.88;7.25;;;6.20;99.90;;;;;;5052618;28;20037;-38
2024/02/25 07:25:20;;;;;;;13.52;6.47;;;6.30;99.90;;;;;;5044073;28;20485;-39
2024/02/25 07:27:46;;;;;;;13.65;6.88;;;6.30;99.90;;;;;;5032575;28;20506;-38
2024/02/25 07:30:11;;;;;;;11.80;7.13;;;6.30;99.90;;;;;;5048905;28;20086;-39
2024/02/25 07:32:37;;;;;;;11.60;7.25;;;6.30;99.90;;;;;;5050405;28;20037;-40
2024/02/25 07:35:03;;;;;;;14.10;7.47;;;6.20;99.90;;;;;;5046171;28;20037;-40
2024/02/25 07:37:29;;;;;;;11.55;6.15;;;6.30;99.90;;;;;;5032236;28;20037;-38
2024/02/25 07:39:55;;;;;;;14.60;6.63;;;6.20;99.90;;;;;;5032562;28;20026;-39
2024/02/25 07:42:20;;;;;;;12.30;7.00;;;6.20;99.90;;;;;;5034191;28;20458;-40
2024/02/25 07:44:46;;;;;;;10.13;6.70;;;6.20;99.90;;;;;;5035704;28;20025;-40
2024/02/25 07:47:11;;;;;;;14.32;7.47;;;6.30;99.90;;;;;;5034907;28;20076;-45
2024/02/25 07:49:37;;;;;;;19.58;7.93;;;6.40;99.90;;;;;;5032444;28;20441;-40
2024/02/25 07:52:03;;;;;;;12.27;7.45;;;6.50;99.90;;;;;;5032831;28;20021;-39
2024/02/25 07:54:29;;;;;;;13.63;7.78;;;6.60;99.90;;;;;;5032452;28;20493;-55
2024/02/25 07:56:54;;;;;;;12.63;7.32;;;6.70;99.90;;;;;;5033941;28;20076;-54
2024/02/25 07:59:20;;;;;;;13.85;7.22;;;6.80;99.90;;;;;;5032444;28;20083;-54
2024/02/25 08:01:46;;;;;;;12.07;7.18;;;6.90;99.90;;;;;;5032969;28;20478;-54
2024/02/25 08:04:11;;;;;;;14.90;8.10;;;7.00;99.90;;;;;;5044972;28;20544;-54
2024/02/25 08:06:37;;;;;;;14.32;8.52;;;7.00;99.90;;;;;;5032561;28;20030;-55
2024/02/25 08:09:02;;;;;;;14.27;7.10;;;7.10;99.90;;;;;;5034999;28;20021;-51
2024/02/25 08:11:28;;;;;;;15.38;7.43;;;7.10;99.90;;;;;;5052128;28;20032;-56
2024/02/25 08:13:54;;;;;;;13.93;7.88;;;7.10;99.90;;;;;;5046457;28;20028;-53
2024/02/25 08:16:20;;;;;;;14.55;8.18;;;7.20;99.90;;;;;;5032568;28;20025;-53
2024/02/25 08:18:47;;;;;;;18.90;6.95;;;7.20;99.90;;;;;;5041390;28;20367;-40
2024/02/25 08:21:13;;;;;;;15.93;7.80;;;7.30;99.90;;;;;;5032711;28;20017;-43
2024/02/25 08:23:43;;;;;;;14.50;6.70;;;7.30;99.90;;;;;;5032454;28;20018;-41
2024/02/25 08:26:09;;;;;;;11.80;7.50;;;7.20;99.90;;;;;;5039594;28;20057;-41
2024/02/25 08:28:38;;;;;;;13.63;8.00;;;7.30;99.90;;;;;;5032288;28;20104;-45
2024/02/25 08:31:04;;;;;;;15.80;7.20;;;7.30;99.90;;;;;;5032560;28;20474;-40
2024/02/25 08:33:29;;;;;;;16.23;7.25;;;7.40;99.90;;;;;;5051155;28;20075;-42
2024/02/25 08:35:56;;;;;;;12.32;7.35;;;7.40;99.90;;;;;;5049120;28;20035;-40
2024/02/25 08:38:21;;;;;;;21.30;8.93;;;7.60;99.90;;;;;;5039826;28;20482;-38
2024/02/25 08:40:47;;;;;;;12.18;7.07;;;7.60;99.90;;;;;;5042863;28;20066;-39
2024/02/25 08:43:13;;;;;;;12.35;7.43;;;7.60;99.90;;;;;;5031867;28;20029;-42
2024/02/25 08:45:39;;;;;;;18.30;8.05;;;7.70;99.90;;;;;;5039900;28;20029;-41
2024/02/25 08:48:05;;;;;;;15.32;8.00;;;7.80;99.90;;;;;;5050751;28;20024;-40
2024/02/25 08:50:30;;;;;;;15.55;8.07;;;7.80;99.90;;;;;;5054585;28;20016;-41
2024/02/25 08:52:56;;;;;;;14.75;8.13;;;7.90;99.90;;;;;;5053605;28;20474;-43
2024/02/25 08:55:22;;;;;;;16.15;8.93;;;7.90;99.90;;;;;;5035451;28;20026;-55
2024/02/25 08:57:47;;;;;;;13.23;8.05;;;7.90;99.90;;;;;;5039612;28;20033;-56
2024/02/25 09:00:13;;;;;;;14.18;8.23;;;7.90;99.90;;;;;;5039422;28;20036;-52
2024/02/25 09:02:39;;;;;;;14.25;8.00;;;7.90;99.90;;;;;;5034872;28;20489;-53
2024/02/25 09:05:05;;;;;;;18.63;8.40;;;8.00;99.90;;;;;;5034955;28;20092;-52
2024/02/25 09:07:31;;;;;;;15.38;8.35;;;8.00;99.90;;;;;;5035181;28;20497;-49
2024/02/25 09:09:57;;;;;;;12.90;8.68;;;8.00;99.90;;;;;;5035781;28;20032;-52
2024/02/25 09:12:23;;;;;;;15.32;8.48;;;8.00;99.90;;;;;;5035182;28;20543;-52
2024/02/25 09:14:50;;;;;;;14.40;9.15;;;8.00;99.90;;;;;;5036664;28;20468;-53
2024/02/25 09:17:15;;;;;;;20.60;8.48;;;8.10;99.90;;;;;;5035230;28;20030;-53
2024/02/25 09:19:42;;;;;;;20.25;9.77;;;8.20;99.90;;;;;;5036530;28;20485;-51
2024/02/25 09:22:07;;;;;;;16.10;8.77;;;8.20;99.90;;;;;;5048677;28;20021;-52
2024/02/25 09:24:33;;;;;;;17.52;9.13;;;8.30;99.90;;;;;;5039750;28;20109;-53
2024/02/25 09:26:59;;;;;;;16.67;9.48;;;8.30;99.90;;;;;;5047658;28;20435;-54
2024/02/25 09:29:24;;;;;;;14.07;8.73;;;8.30;99.90;;;;;;5050443;28;20390;-54
2024/02/25 09:31:54;;;;;;;25.15;9.27;;;8.30;99.90;;;;;;5051135;28;20064;-54
2024/02/25 09:34:19;;;;;;;15.60;9.27;;;8.40;99.90;;;;;;5045182;28;20385;-48
2024/02/25 09:36:45;;;;;;;17.60;9.63;;;8.40;99.90;;;;;;5046397;28;20025;-61
2024/02/25 09:39:14;;;;;;;18.77;9.65;;;8.50;99.90;;;;;;5054005;28;20025;-51
2024/02/25 09:41:42;;;;;;;17.08;9.38;;;8.60;99.90;;;;;;5051978;28;20029;-52
2024/02/25 09:44:28;;;;;;;21.52;9.55;;;8.70;99.90;;;;;;5036539;28;20041;-54
2024/02/25 09:46:55;;;;;;;16.42;8.55;;;8.70;99.90;;;;;;5033900;28;20034;-52
2024/02/25 09:49:25;;;;;;;15.00;8.43;;;8.70;99.90;;;;;;5036777;28;20100;-53
2024/02/25 09:51:52;;;;;;;15.02;9.00;;;8.70;99.90;;;;;;5051182;28;20752;-53
2024/02/25 09:54:17;;;;;;;16.58;8.55;;;8.70;99.90;;;;;;5044690;28;20485;-53
2024/02/25 09:56:50;;;;;;;14.77;8.48;;;8.60;99.90;;;;;;5035075;28;20029;-53
2024/02/25 09:59:19;;;;;;;16.48;9.02;;;8.70;99.90;;;;;;5034469;28;20402;-55
2024/02/25 10:01:48;;;;;;;14.77;9.07;;;8.90;99.90;;;;;;5039957;28;20462;-54
2024/02/25 10:04:14;;;;;;;17.83;8.88;;;8.90;99.90;;;;;;5052294;28;20079;-54
2024/02/25 10:06:42;;;;;;;11.75;7.05;;;9.00;99.90;;;;;;5053659;28;20418;-54
2024/02/25 10:09:12;;;;;;;11.88;7.47;;;9.10;99.90;;;;;;5053149;28;20029;-53
2024/02/25 10:11:40;;;;;;;13.45;7.90;;;9.20;99.90;;;;;;5035042;28;20386;-54
2024/02/25 10:14:06;;;;;;;13.95;6.80;;;9.20;99.90;;;;;;5034167;28;20473;-53
2024/02/25 10:16:32;;;;;;;14.00;7.07;;;9.20;99.90;;;;;;5054086;28;20028;-54
2024/02/25 10:18:59;;;;;;;12.50;8.00;;;9.30;99.90;;;;;;5052686;28;20021;-54
2024/02/25 10:21:25;;;;;;;14.43;8.18;;;9.30;99.90;;;;;;5033978;28;20424;-53
2024/02/25 10:23:54;;;;;;;11.32;7.07;;;9.40;99.90;;;;;;5044536;28;20025;-52
2024/02/25 10:26:23;;;;;;;12.65;7.53;;;9.40;99.90;;;;;;5041871;28;20457;-55
2024/02/25 10:29:04;;;;;;;12.95;7.82;;;9.30;99.90;;;;;;5032054;28;20523;-54
2024/02/25 10:31:30;;;;;;;13.57;6.70;;;9.30;99.90;;;;;;5035733;28;20067;-53
2024/02/25 10:33:58;;;;;;;14.10;7.45;;;9.30;99.90;;;;;;5033184;28;20067;-55
2024/02/25 10:36:27;;;;;;;11.95;6.90;;;9.20;99.90;;;;;;5045050;28;20033;-52
2024/02/25 10:38:55;;;;;;;13.73;7.05;;;9.00;99.90;;;;;;5053436;28;20025;-53
2024/02/25 10:41:22;;;;;;;12.43;7.10;;;8.90;99.90;;;;;;5040118;28;20470;-56
2024/02/25 10:43:52;;;;;;;13.40;6.30;;;9.00;99.90;;;;;;5038604;28;20028;-56
2024/02/25 10:46:42;;;;;;;13.43;6.82;;;9.00;99.90;;;;;;5053266;28;20100;-55
2024/02/25 10:49:12;;;;;;;10.45;6.60;;;9.20;99.90;;;;;;5044944;28;20033;-54
2024/02/25 10:51:39;;;;;;;10.30;6.15;;;9.20;99.90;;;;;;5033549;28;20474;-54
2024/02/25 10:54:06;;;;;;;11.82;6.03;;;9.30;99.90;;;;;;5039389;28;20032;-56
2024/02/25 10:56:32;;;;;;;13.00;6.15;;;9.40;99.90;;;;;;5050225;28;20037;-56
2024/02/25 10:58:59;;;;;;;10.50;5.95;;;9.40;99.90;;;;;;5033055;28;20033;-54
2024/02/25 11:01:26;;;;;;;8.15;6.18;;;9.40;99.90;;;;;;5032982;28;20075;-56
2024/02/25 11:03:52;;;;;;;11.35;5.25;;;9.40;99.90;;;;;;5033083;28;20022;-55
2024/02/25 11:06:39;;;;;;;8.63;6.18;;;9.50;99.90;;;;;;5037715;28;20087;-54
2024/02/25 11:09:14;;;;;;;7.97;5.68;;;9.60;99.90;;;;;;5033602;28;20552;-54
2024/02/25 11:11:42;;;;;;;8.85;5.20;;;9.50;99.90;;;;;;5032612;28;20493;-52
2024/02/25 11:14:12;;;;;;;;;;;9.40;99.90;;;;;;5033577;28;20025;-53
2024/02/25 11:16:42;;;;;;;9.70;5.60;;;9.40;99.90;;;;;;5032792;28;20312;-53
2024/02/25 11:19:13;;;;;;;9.35;6.10;;;9.40;99.90;;;;;;5033278;28;20083;-54
2024/02/25 11:21:39;;;;;;;11.65;5.93;;;9.40;99.90;;;;;;5032889;28;20033;-55
2024/02/25 11:24:11;;;;;;;9.48;5.95;;;9.40;99.90;;;;;;5032695;28;20562;-56
2024/02/25 11:26:43;;;;;;;9.63;5.97;;;9.30;99.90;;;;;;5036099;28;20044;-54
2024/02/25 11:29:22;;;;;;;7.47;5.68;;;9.30;99.90;;;;;;5032889;28;20029;-54
2024/02/25 11:31:59;;;;;;;12.95;6.13;;;9.20;99.90;;;;;;5032934;28;20037;-55
2024/02/25 11:34:29;;;;;;;8.87;5.77;;;9.30;99.90;;;;;;5031560;28;20029;-55
2024/02/25 11:36:59;;;;;;;7.97;4.88;;;9.30;99.90;;;;;;5032521;28;20268;-55
2024/02/25 11:39:27;;;;;;;10.98;5.90;;;9.30;99.90;;;;;;5033431;28;20481;-53
2024/02/25 11:41:57;;;;;;;7.10;4.78;;;9.50;99.90;;;;;;5032334;28;20057;-55
2024/02/25 11:44:24;;;;;;;10.63;6.22;;;9.70;99.90;;;;;;5033070;28;20518;-56
2024/02/25 11:47:05;;;;;;;7.20;4.95;;;9.90;99.90;;;;;;5046330;28;20021;-55
2024/02/25 11:49:31;;;;;;;7.13;4.95;;;10.00;99.90;;;;;;5049600;28;20413;-56
2024/02/25 11:52:01;;;;;;;5.55;3.97;;;10.10;99.90;;;;;;5032561;28;20026;-41
2024/02/25 11:54:29;;;;;;;8.45;5.03;;;10.30;99.90;;;;;;5032271;28;20037;-41
2024/02/25 11:56:54;;;;;;;9.00;4.50;;;10.40;99.90;;;;;;5033197;28;20033;-40
2024/02/25 11:59:21;;;;;;;5.35;4.00;;;10.30;99.90;;;;;;5032536;28;20033;-40
2024/02/25 12:01:48;;;;;;;8.63;5.07;;;10.10;99.90;;;;;;5032893;28;20021;-42
2024/02/25 12:04:15;;;;;;;8.57;5.13;;;10.00;99.90;;;;;;5032422;28;20117;-45
2024/02/25 12:06:41;;;;;;;8.68;5.45;;;9.90;99.90;;;;;;5033117;28;20164;-41
2024/02/25 12:09:10;;;;;;;7.03;4.90;;;9.80;99.90;;;;;;5032338;28;20497;-45
2024/02/25 12:11:37;;;;;;;8.48;5.55;;;9.80;99.90;;;;;;5033133;28;20022;-47
2024/02/25 12:14:06;;;;;;;8.52;5.05;;;9.70;99.90;;;;;;5032304;28;20025;-43
2024/02/25 12:16:33;;;;;;;8.65;5.45;;;9.70;99.90;;;;;;5032351;28;20025;-51
2024/02/25 12:19:00;;;;;;;9.13;5.00;;;9.70;99.90;;;;;;5032848;28;20478;-43
2024/02/25 12:21:27;;;;;;;8.05;4.53;;;9.80;99.90;;;;;;5043433;28;20024;-43
2024/02/25 12:23:59;;;;;;;9.50;5.18;;;9.80;99.90;;;;;;5053802;28;20021;-44
2024/02/25 12:26:26;;;;;;;9.40;5.72;;;9.80;99.90;;;;;;5053924;28;20036;-57
2024/02/25 12:28:52;;;;;;;7.55;4.47;;;9.70;99.90;;;;;;5055797;28;20021;-56
2024/02/25 12:31:18;;;;;;;8.07;5.00;;;9.80;99.90;;;;;;5055861;28;20024;-57
2024/02/25 12:33:49;;;;;;;11.15;5.63;;;9.80;99.90;;;;;;5055810;28;20393;-56
2024/02/25 12:36:14;;;;;;;10.50;5.32;;;9.90;99.90;;;;;;5043911;28;20120;-56
2024/02/25 12:38:47;;;;;;;11.65;4.85;;;9.90;99.90;;;;;;5035876;28;20104;-56
2024/02/25 12:41:14;;;;;;;8.27;5.18;;;10.00;99.90;;;;;;5045712;28;20101;-53
2024/02/25 12:43:42;;;;;;;9.38;4.60;;;10.10;99.90;;;;;;5055566;28;20036;-54
2024/02/25 12:46:07;;;;;;;7.80;4.73;;;10.00;99.90;;;;;;5043055;28;20112;-56
2024/02/25 12:48:33;;;;;;;5.97;4.75;;;10.10;99.90;;;;;;5034382;28;20490;-56
2024/02/25 12:50:59;;;;;;;7.35;4.40;;;10.10;99.90;;;;;;5036711;28;20060;-57